Keysville, Virginia
Current Conditions -  °F | °C
As of 8:15 AM on Friday 24 Oct 2014 (Local Time) from KW31 Reporting Station
Clear Clear  
Wind Chill: 48°   Ceiling: Unl
Heat Index: 48°   Visibility: 10mi
Dew Point: 42°   Wind: 3mph
Humidity: 82%   Direction: 300°WNW
Pressure: 30.02"   Gusts: NA
Location:  37.04°N, 78.48°W
Report Text: KW31 241215Z AUTO 30003KT 10SM CLR 09/06 A3002 RMK AO1 T00870057
Loading
Personal Weather Stations






























Interactive Weather Map
Tropical Storm Tracking
New forecast layout! Learn more

10-Day Weather Forecast

Advertisements
Track Severe Weather on mobile